Time;durP1;ratioP1;P1;durP2;ratioP2;P2;SDS_P1;SDS_P2;PMS_P1;PMS_P2;Temp;Humidity;BMP_temperature;BMP_pressure;BME280_temperature;BME280_humidity;BME280_pressure;Samples;Min_cycle;Max_cycle;Signal;HPM_P1;HPM_P2
2022/07/17 00:02:00;;;;;;;19.13;9.27;;;26.50;40.90;;;;;;5063879;28;20442;-80
2022/07/17 00:04:28;;;;;;;15.77;8.70;;;26.40;40.90;;;;;;5063198;28;20466;-79
2022/07/17 00:06:56;;;;;;;20.30;8.50;;;26.40;41.00;;;;;;5063273;28;20469;-80
2022/07/17 00:09:24;;;;;;;16.67;8.97;;;26.40;41.60;;;;;;5063167;28;20441;-79
2022/07/17 00:11:51;;;;;;;18.50;8.53;;;26.40;41.00;;;;;;5053041;28;20409;-79
2022/07/17 00:14:19;;;;;;;12.67;7.77;;;26.40;41.10;;;;;;5041916;28;20491;-80
2022/07/17 00:16:47;;;;;;;17.47;8.83;;;26.30;41.10;;;;;;5041629;28;20873;-79
2022/07/17 00:19:17;;;;;;;19.50;8.30;;;26.30;41.10;;;;;;5042074;28;20439;-79
2022/07/17 00:21:45;;;;;;;19.30;8.13;;;26.30;41.10;;;;;;5040210;28;20473;-79
2022/07/17 00:24:19;;;;;;;16.20;7.10;;;26.30;41.20;;;;;;5041405;28;20547;-79
2022/07/17 00:26:47;;;;;;;12.47;7.73;;;26.40;41.20;;;;;;5041075;28;20402;-79
2022/07/17 00:29:15;;;;;;;18.30;9.10;;;26.30;41.10;;;;;;5040084;28;20437;-80
2022/07/17 00:31:43;;;;;;;17.20;8.43;;;26.30;41.20;;;;;;5040380;28;20486;-79
2022/07/17 00:34:11;;;;;;;12.57;7.60;;;26.30;41.40;;;;;;5041435;28;20878;-79
2022/07/17 00:36:40;;;;;;;15.67;8.07;;;26.30;41.40;;;;;;5041102;28;20451;-79
2022/07/17 00:39:08;;;;;;;16.40;7.03;;;26.30;41.40;;;;;;5041968;28;20447;-79
2022/07/17 00:41:36;;;;;;;15.37;7.20;;;26.30;41.40;;;;;;5042670;28;20513;-79
2022/07/17 00:44:05;;;;;;;12.60;7.60;;;26.30;41.30;;;;;;5042128;28;20546;-79
2022/07/17 00:46:33;;;;;;;17.43;7.20;;;26.30;41.30;;;;;;5041853;28;20978;-79
2022/07/17 00:49:01;;;;;;;13.50;7.37;;;26.30;41.40;;;;;;5041970;28;20644;-79
2022/07/17 00:51:29;;;;;;;10.37;6.80;;;26.20;41.40;;;;;;5041602;28;20505;-79
2022/07/17 00:53:59;;;;;;;10.87;6.70;;;26.20;41.60;;;;;;5039957;28;20468;-79
2022/07/17 00:56:35;;;;;;;14.73;6.93;;;26.20;41.60;;;;;;5040587;28;20441;-79
2022/07/17 00:59:03;;;;;;;12.43;7.33;;;26.20;41.60;;;;;;5042137;28;20444;-79
2022/07/17 01:01:31;;;;;;;12.23;6.73;;;26.20;41.70;;;;;;5041327;28;20991;-79
2022/07/17 01:04:00;;;;;;;15.37;6.77;;;26.20;41.70;;;;;;5039956;28;20462;-79
2022/07/17 01:06:28;;;;;;;10.37;6.40;;;26.20;41.60;;;;;;5043276;28;20466;-79
2022/07/17 01:08:56;;;;;;;11.93;6.60;;;26.20;41.70;;;;;;5043065;28;20438;-80
2022/07/17 01:11:25;;;;;;;11.53;6.10;;;26.20;41.60;;;;;;5042491;28;20445;-79
2022/07/17 01:13:53;;;;;;;10.97;6.87;;;26.20;41.80;;;;;;5038286;28;20459;-81
2022/07/17 01:16:22;;;;;;;15.40;6.50;;;26.20;41.80;;;;;;5037144;28;20446;-81
2022/07/17 01:18:50;;;;;;;12.37;5.97;;;26.20;41.80;;;;;;5037463;28;20434;-80
2022/07/17 01:21:19;;;;;;;11.40;6.20;;;26.20;41.80;;;;;;5040629;28;20488;-81
2022/07/17 01:23:47;;;;;;;10.20;6.60;;;26.20;41.80;;;;;;5042063;28;20472;-81
2022/07/17 01:26:15;;;;;;;14.70;6.70;;;26.20;41.80;;;;;;5041827;28;20536;-81
2022/07/17 01:28:43;;;;;;;8.23;6.10;;;26.20;41.90;;;;;;5043037;28;20467;-81
2022/07/17 01:31:11;;;;;;;10.30;6.23;;;26.20;42.00;;;;;;5045446;28;20458;-81
2022/07/17 01:33:40;;;;;;;14.10;6.03;;;26.20;42.00;;;;;;5044630;28;20457;-81
2022/07/17 01:36:08;;;;;;;9.37;5.97;;;26.20;42.00;;;;;;5038775;28;20434;-81
2022/07/17 01:38:37;;;;;;;7.33;5.60;;;26.10;41.90;;;;;;5037835;28;20493;-80
2022/07/17 01:41:05;;;;;;;8.57;5.53;;;26.20;42.00;;;;;;5031731;28;20454;-81
2022/07/17 01:43:33;;;;;;;9.20;5.90;;;26.20;42.00;;;;;;5046548;28;20454;-81
2022/07/17 01:46:01;;;;;;;7.27;6.07;;;26.10;41.90;;;;;;5046431;28;20470;-81
2022/07/17 01:48:29;;;;;;;8.23;5.43;;;26.10;42.00;;;;;;5044465;28;20447;-81
2022/07/17 01:50:57;;;;;;;8.70;5.40;;;26.20;42.00;;;;;;5040269;28;20414;-81
2022/07/17 01:53:25;;;;;;;10.93;5.70;;;26.10;41.90;;;;;;5040384;28;20485;-81
2022/07/17 01:55:54;;;;;;;14.83;5.50;;;26.10;42.00;;;;;;5040880;28;20530;-80
2022/07/17 01:58:23;;;;;;;7.13;5.30;;;26.10;42.00;;;;;;5041228;28;20466;-80
2022/07/17 02:00:51;;;;;;;8.10;5.13;;;26.10;42.10;;;;;;5041343;28;20566;-81
2022/07/17 02:03:19;;;;;;;7.93;5.53;;;26.10;42.20;;;;;;5042585;28;20537;-80
2022/07/17 02:05:47;;;;;;;8.63;5.93;;;26.10;42.10;;;;;;5042132;28;20493;-81
2022/07/17 02:08:15;;;;;;;7.50;5.00;;;26.10;42.20;;;;;;5042814;28;20436;-81
2022/07/17 02:10:44;;;;;;;10.53;5.43;;;26.00;42.10;;;;;;5041703;28;20495;-80
2022/07/17 02:13:13;;;;;;;9.60;5.10;;;26.00;42.20;;;;;;5040802;28;20499;-80
2022/07/17 02:15:41;;;;;;;7.43;5.07;;;26.00;42.20;;;;;;5039577;28;20485;-81
2022/07/17 02:18:09;;;;;;;7.10;5.17;;;26.00;42.20;;;;;;5037679;28;20439;-81
2022/07/17 02:20:37;;;;;;;6.80;5.03;;;26.00;42.20;;;;;;5037463;28;20505;-81
2022/07/17 02:23:05;;;;;;;9.07;4.90;;;26.00;42.30;;;;;;5037795;28;20458;-81
2022/07/17 02:25:32;;;;;;;8.27;5.10;;;26.00;42.30;;;;;;5040713;28;20463;-81
2022/07/17 02:28:00;;;;;;;12.40;5.40;;;26.00;42.40;;;;;;5042695;28;20451;-81
2022/07/17 02:30:30;;;;;;;6.57;5.03;;;25.90;42.30;;;;;;5041841;28;20485;-81
2022/07/17 02:32:57;;;;;;;7.73;5.33;;;25.90;42.30;;;;;;5043790;28;20438;-81
2022/07/17 02:35:25;;;;;;;7.70;4.90;;;25.90;42.30;;;;;;5046272;28;20458;-80
2022/07/17 02:37:53;;;;;;;10.60;5.40;;;25.90;42.40;;;;;;5049938;28;20534;-80
2022/07/17 02:40:21;;;;;;;7.50;5.20;;;25.90;42.40;;;;;;5048029;28;20466;-80
2022/07/17 02:42:49;;;;;;;5.63;4.57;;;25.90;42.60;;;;;;5048771;28;20474;-80
2022/07/17 02:45:21;;;;;;;6.60;4.43;;;25.90;42.60;;;;;;5049016;28;20453;-80
2022/07/17 02:47:51;;;;;;;12.70;4.90;;;25.90;42.60;;;;;;5049169;28;20513;-81
2022/07/17 02:50:19;;;;;;;7.67;4.70;;;25.90;42.60;;;;;;5049003;28;20426;-80
2022/07/17 02:52:47;;;;;;;9.30;4.77;;;25.90;42.70;;;;;;5048700;28;20479;-81
2022/07/17 02:55:16;;;;;;;7.50;4.90;;;25.90;42.70;;;;;;5046840;28;20501;-80
2022/07/17 02:57:46;;;;;;;5.33;4.40;;;25.80;42.80;;;;;;5047299;28;20426;-80
2022/07/17 03:00:16;;;;;;;7.63;5.13;;;25.80;42.80;;;;;;5047596;28;20449;-80
2022/07/17 03:02:44;;;;;;;11.20;4.67;;;25.80;42.80;;;;;;5047728;28;20505;-80
2022/07/17 03:05:13;;;;;;;7.07;4.83;;;25.80;42.80;;;;;;5047081;28;20482;-80
2022/07/17 03:07:41;;;;;;;6.00;4.00;;;25.80;42.80;;;;;;5048410;28;20485;-80
2022/07/17 03:10:09;;;;;;;6.37;4.67;;;25.80;42.90;;;;;;5046610;28;20501;-80
2022/07/17 03:12:37;;;;;;;5.73;4.57;;;25.80;42.80;;;;;;5062367;28;20522;-80
2022/07/17 03:15:05;;;;;;;6.30;4.17;;;25.80;42.90;;;;;;5066988;28;20488;-80
2022/07/17 03:17:33;;;;;;;5.17;3.93;;;25.80;42.90;;;;;;5067160;28;20634;-80
2022/07/17 03:20:01;;;;;;;6.80;4.87;;;25.80;43.00;;;;;;5067001;28;20484;-80
2022/07/17 03:22:31;;;;;;;4.90;4.30;;;25.80;43.00;;;;;;5067400;28;20470;-80
2022/07/17 03:24:59;;;;;;;5.60;4.30;;;25.70;42.90;;;;;;5066616;28;20540;-80
2022/07/17 03:27:27;;;;;;;7.20;4.10;;;25.80;43.00;;;;;;5067017;28;20489;-80
2022/07/17 03:29:55;;;;;;;5.53;4.10;;;25.70;43.00;;;;;;5067375;28;20466;-80
2022/07/17 03:32:22;;;;;;;6.70;4.00;;;25.70;43.00;;;;;;5066341;28;20437;-80
2022/07/17 03:34:50;;;;;;;8.23;4.40;;;25.70;43.10;;;;;;5065139;28;20468;-80
2022/07/17 03:37:18;;;;;;;4.60;3.70;;;25.70;43.00;;;;;;5067305;28;20439;-80
2022/07/17 03:39:47;;;;;;;5.20;4.40;;;25.70;43.10;;;;;;5066633;28;20451;-80
2022/07/17 03:42:15;;;;;;;8.53;4.17;;;25.70;43.10;;;;;;5067226;28;20570;-80
2022/07/17 03:44:42;;;;;;;7.83;4.30;;;25.70;43.10;;;;;;5066907;28;20485;-80
2022/07/17 03:47:10;;;;;;;6.00;4.30;;;25.70;43.10;;;;;;5065927;28;20423;-81
2022/07/17 03:49:38;;;;;;;6.63;4.10;;;25.70;43.10;;;;;;5065972;28;20478;-80
2022/07/17 03:52:06;;;;;;;9.50;3.73;;;25.70;43.10;;;;;;5066542;28;20522;-81
2022/07/17 03:54:34;;;;;;;4.60;3.80;;;25.70;43.10;;;;;;5065208;28;20537;-81
2022/07/17 03:57:03;;;;;;;4.80;3.70;;;25.70;43.10;;;;;;5064956;28;20470;-81
2022/07/17 03:59:31;;;;;;;6.27;4.33;;;25.70;43.10;;;;;;5065082;28;20534;-80
2022/07/17 04:01:59;;;;;;;6.93;4.30;;;25.70;43.20;;;;;;5063421;28;20491;-80
2022/07/17 04:04:27;;;;;;;5.17;3.73;;;25.70;43.20;;;;;;5064373;28;20459;-81
2022/07/17 04:06:55;;;;;;;5.70;3.87;;;25.70;43.20;;;;;;5064354;28;20458;-81
2022/07/17 04:09:22;;;;;;;7.83;3.80;;;25.70;43.20;;;;;;5063666;28;20532;-81
2022/07/17 04:11:50;;;;;;;5.53;4.00;;;25.70;43.20;;;;;;5063958;28;20557;-81
2022/07/17 04:14:20;;;;;;;5.23;4.40;;;25.70;43.20;;;;;;5065328;28;20530;-80
2022/07/17 04:16:47;;;;;;;12.17;3.77;;;25.60;43.10;;;;;;5065257;28;20526;-81
2022/07/17 04:19:15;;;;;;;7.40;3.80;;;25.60;43.20;;;;;;5066190;28;20489;-81
2022/07/17 04:21:43;;;;;;;4.30;3.83;;;25.60;43.20;;;;;;5065879;28;20472;-81
2022/07/17 04:24:11;;;;;;;5.97;3.77;;;25.70;43.20;;;;;;5065719;28;20520;-80
2022/07/17 04:26:39;;;;;;;5.77;4.07;;;25.70;43.20;;;;;;5066010;28;20614;-80
2022/07/17 04:29:07;;;;;;;4.83;3.70;;;25.70;43.20;;;;;;5066305;28;20420;-80
2022/07/17 04:31:36;;;;;;;4.80;3.93;;;25.70;43.20;;;;;;5066317;28;20498;-81
2022/07/17 04:34:03;;;;;;;6.80;4.13;;;25.70;43.10;;;;;;5064206;28;20462;-81
2022/07/17 04:36:31;;;;;;;5.53;3.50;;;25.70;43.10;;;;;;5064594;28;20525;-81
2022/07/17 04:38:59;;;;;;;6.53;3.47;;;25.70;43.10;;;;;;5065643;28;20502;-80
2022/07/17 04:41:27;;;;;;;4.57;4.00;;;25.70;43.10;;;;;;5069176;28;20484;-80
2022/07/17 04:43:55;;;;;;;5.63;3.63;;;25.70;43.10;;;;;;5065631;28;20457;-81
2022/07/17 04:46:23;;;;;;;5.43;3.37;;;25.70;43.10;;;;;;5064154;28;20452;-80
2022/07/17 04:48:52;;;;;;;3.63;3.33;;;25.70;43.10;;;;;;5065155;28;20438;-80
2022/07/17 04:51:20;;;;;;;4.50;3.53;;;25.70;43.10;;;;;;5065982;28;20443;-80
2022/07/17 04:53:48;;;;;;;11.10;3.93;;;25.70;43.10;;;;;;5064208;28;20513;-80
2022/07/17 04:56:15;;;;;;;4.03;3.33;;;25.80;43.10;;;;;;5064888;28;20523;-80
2022/07/17 04:58:43;;;;;;;3.90;3.30;;;25.80;43.20;;;;;;5065822;28;20513;-80
2022/07/17 05:01:11;;;;;;;6.20;4.00;;;25.70;43.10;;;;;;5065616;28;20529;-80
2022/07/17 05:03:39;;;;;;;4.90;3.43;;;25.70;43.10;;;;;;5066937;28;20452;-80
2022/07/17 05:06:09;;;;;;;4.07;3.67;;;25.70;43.10;;;;;;5065457;28;20459;-80
2022/07/17 05:08:37;;;;;;;3.93;3.53;;;25.70;43.10;;;;;;5066052;28;20503;-80
2022/07/17 05:11:04;;;;;;;3.57;3.27;;;25.70;43.10;;;;;;5065187;28;20490;-80
2022/07/17 05:13:32;;;;;;;4.30;3.53;;;25.70;43.10;;;;;;5065482;28;20473;-80
2022/07/17 05:16:00;;;;;;;3.83;3.20;;;25.80;43.10;;;;;;5065788;28;20417;-80
2022/07/17 05:18:28;;;;;;;4.37;3.50;;;25.80;43.10;;;;;;5066190;28;20428;-80
2022/07/17 05:20:56;;;;;;;3.87;3.53;;;25.80;43.10;;;;;;5065731;28;20480;-79
2022/07/17 05:23:26;;;;;;;4.80;3.27;;;25.80;43.10;;;;;;5061650;28;20498;-78
2022/07/17 05:25:54;;;;;;;5.53;3.53;;;25.80;43.00;;;;;;5054525;28;20443;-77
2022/07/17 05:28:22;;;;;;;4.07;3.30;;;25.90;43.00;;;;;;5054794;28;20516;-77
2022/07/17 05:30:49;;;;;;;5.60;3.47;;;25.90;43.00;;;;;;5055371;28;20462;-78
2022/07/17 05:33:17;;;;;;;7.10;3.10;;;25.90;43.00;;;;;;5061667;28;20478;-80
2022/07/17 05:35:45;;;;;;;3.03;2.83;;;25.90;43.00;;;;;;5066403;28;20439;-81
2022/07/17 05:38:13;;;;;;;5.40;3.70;;;25.90;42.90;;;;;;5065164;28;20519;-80
2022/07/17 05:40:42;;;;;;;3.70;3.30;;;25.90;42.90;;;;;;5059958;28;20473;-81
2022/07/17 05:43:10;;;;;;;3.47;3.10;;;25.90;43.00;;;;;;5060142;28;20465;-81
2022/07/17 05:45:38;;;;;;;6.90;3.07;;;25.90;43.00;;;;;;5061268;28;20481;-81
2022/07/17 05:48:07;;;;;;;3.23;2.93;;;26.00;43.10;;;;;;5060009;28;20504;-80
2022/07/17 05:50:34;;;;;;;4.60;3.70;;;26.00;42.90;;;;;;5060780;28;20457;-81
2022/07/17 05:53:02;;;;;;;3.10;2.90;;;26.00;42.90;;;;;;5062299;28;20536;-81
2022/07/17 05:55:30;;;;;;;8.77;3.23;;;26.00;42.80;;;;;;5061233;28;21035;-81
2022/07/17 05:58:00;;;;;;;5.23;3.53;;;26.10;42.80;;;;;;5061535;28;20513;-81
2022/07/17 06:00:28;;;;;;;4.30;3.37;;;26.00;42.80;;;;;;5062514;28;20488;-81
2022/07/17 06:02:56;;;;;;;4.77;3.20;;;26.10;42.70;;;;;;5061307;28;20529;-81
2022/07/17 06:05:25;;;;;;;4.70;3.50;;;26.10;42.80;;;;;;5061467;28;20456;-80
2022/07/17 06:07:53;;;;;;;3.50;2.70;;;26.10;42.80;;;;;;5060492;28;20493;-81
2022/07/17 06:10:21;;;;;;;5.23;3.17;;;26.10;42.60;;;;;;5060619;28;20441;-81
2022/07/17 06:12:52;;;;;;;4.60;2.60;;;26.20;42.70;;;;;;5060568;28;20512;-81
2022/07/17 06:15:21;;;;;;;4.63;3.10;;;26.20;42.60;;;;;;5059994;28;20514;-81
2022/07/17 06:17:49;;;;;;;2.63;2.43;;;26.20;42.60;;;;;;5059655;28;20529;-81
2022/07/17 06:20:17;;;;;;;6.40;3.60;;;26.20;42.60;;;;;;5059436;28;20513;-81
2022/07/17 06:22:45;;;;;;;3.20;2.90;;;26.20;42.60;;;;;;5061400;28;20516;-81
2022/07/17 06:25:13;;;;;;;3.53;3.00;;;26.20;42.50;;;;;;5061051;28;20524;-81
2022/07/17 06:27:41;;;;;;;4.87;3.00;;;26.20;43.00;;;;;;5061715;28;20452;-81
2022/07/17 06:30:10;;;;;;;2.97;2.70;;;26.30;42.40;;;;;;5060959;28;20481;-81
2022/07/17 06:32:40;;;;;;;3.03;2.83;;;26.40;42.30;;;;;;5057050;28;20537;-78
2022/07/17 06:35:08;;;;;;;3.53;2.60;;;26.30;42.30;;;;;;5054822;28;20461;-78
2022/07/17 06:37:36;;;;;;;3.00;2.80;;;26.40;42.20;;;;;;5059494;28;20542;-81
2022/07/17 06:40:05;;;;;;;3.60;2.80;;;26.40;42.20;;;;;;5062466;28;20476;-80
2022/07/17 06:42:34;;;;;;;2.70;2.50;;;26.50;42.20;;;;;;5061649;28;20452;-81
2022/07/17 06:45:02;;;;;;;3.00;2.73;;;26.60;42.10;;;;;;5062062;28;20444;-80
2022/07/17 06:47:29;;;;;;;2.97;2.77;;;26.60;42.00;;;;;;5062755;28;20534;-80
2022/07/17 06:49:59;;;;;;;2.60;2.40;;;26.60;41.90;;;;;;5062521;28;20456;-80
2022/07/17 06:52:27;;;;;;;4.67;2.57;;;26.70;41.80;;;;;;5062829;28;20522;-80
2022/07/17 06:54:57;;;;;;;3.10;2.90;;;26.70;41.80;;;;;;5062511;28;20446;-80
2022/07/17 06:57:25;;;;;;;2.70;2.60;;;26.70;41.70;;;;;;5061416;28;20450;-81
2022/07/17 06:59:53;;;;;;;4.50;2.60;;;26.80;41.70;;;;;;5061257;28;20421;-80
2022/07/17 07:02:21;;;;;;;2.70;2.50;;;26.80;41.60;;;;;;5060940;28;20442;-80
2022/07/17 07:04:49;;;;;;;3.10;2.80;;;26.80;41.60;;;;;;5061629;28;20535;-81
2022/07/17 07:07:19;;;;;;;2.50;2.40;;;26.90;41.70;;;;;;5062970;28;20429;-81
2022/07/17 07:09:47;;;;;;;2.90;2.60;;;26.90;41.50;;;;;;5066141;28;20462;-81
2022/07/17 07:12:15;;;;;;;2.73;2.53;;;26.90;41.40;;;;;;5060820;28;20445;-81
2022/07/17 07:14:43;;;;;;;2.77;2.50;;;27.00;41.30;;;;;;5052651;28;20447;-81
2022/07/17 07:17:11;;;;;;;2.03;1.93;;;27.10;41.30;;;;;;5051287;28;20482;-81
2022/07/17 07:19:39;;;;;;;3.07;2.87;;;27.10;41.10;;;;;;5044653;28;20454;-81
2022/07/17 07:22:07;;;;;;;2.50;2.23;;;27.10;41.10;;;;;;5043712;28;20522;-81
2022/07/17 07:24:36;;;;;;;2.67;2.47;;;27.10;41.10;;;;;;5046415;28;20476;-81
2022/07/17 07:27:04;;;;;;;2.70;2.50;;;27.10;41.10;;;;;;5044196;28;20541;-81
2022/07/17 07:29:32;;;;;;;2.67;2.47;;;27.10;41.20;;;;;;5044264;28;20447;-81
2022/07/17 07:32:00;;;;;;;3.10;2.90;;;27.10;41.00;;;;;;5043133;28;20447;-81
2022/07/17 07:34:28;;;;;;;2.93;2.73;;;27.20;41.10;;;;;;5040219;28;20448;-81
2022/07/17 07:36:56;;;;;;;3.00;2.50;;;27.20;41.10;;;;;;5041324;28;20510;-81
2022/07/17 07:39:24;;;;;;;2.80;2.60;;;27.30;41.10;;;;;;5041717;28;20454;-81
2022/07/17 07:41:53;;;;;;;3.27;2.40;;;27.40;41.00;;;;;;5041643;28;20498;-81
2022/07/17 07:44:21;;;;;;;2.80;2.60;;;27.40;41.00;;;;;;5043111;28;20482;-81
2022/07/17 07:46:58;;;;;;;2.70;2.50;;;27.40;40.90;;;;;;5043709;28;20488;-81
2022/07/17 07:49:26;;;;;;;2.90;2.27;;;27.40;40.80;;;;;;5042774;28;20474;-81
2022/07/17 07:51:54;;;;;;;2.90;2.50;;;27.50;40.90;;;;;;5042116;28;20526;-81
2022/07/17 07:54:31;;;;;;;2.77;2.57;;;27.50;40.80;;;;;;5050250;28;20467;-80
2022/07/17 07:57:00;;;;;;;3.07;2.80;;;27.50;40.80;;;;;;5045907;28;20470;-80
2022/07/17 07:59:28;;;;;;;2.20;2.10;;;27.60;40.70;;;;;;5045010;28;20475;-81
2022/07/17 08:01:56;;;;;;;2.57;2.37;;;27.60;40.60;;;;;;5046213;28;20418;-81
2022/07/17 08:04:24;;;;;;;2.40;2.30;;;27.70;40.50;;;;;;5044245;28;20476;-81
2022/07/17 08:06:52;;;;;;;2.60;2.40;;;27.70;40.40;;;;;;5042166;28;20519;-80
2022/07/17 08:09:21;;;;;;;2.20;2.10;;;27.80;40.40;;;;;;5042751;28;20426;-81
2022/07/17 08:11:49;;;;;;;3.10;2.73;;;27.80;40.20;;;;;;5042363;28;20446;-80
2022/07/17 08:14:18;;;;;;;2.50;2.33;;;28.00;40.20;;;;;;5043425;28;20543;-81
2022/07/17 08:16:46;;;;;;;2.10;2.00;;;28.10;40.10;;;;;;5043506;28;20447;-81
2022/07/17 08:19:14;;;;;;;5.17;2.47;;;28.20;39.90;;;;;;5042666;28;21047;-81
2022/07/17 08:21:42;;;;;;;2.37;2.17;;;28.30;39.60;;;;;;5042347;28;20474;-81
2022/07/17 08:24:10;;;;;;;3.27;2.67;;;28.40;39.50;;;;;;5044219;28;20481;-81
2022/07/17 08:26:38;;;;;;;2.80;2.60;;;28.40;39.30;;;;;;5042788;28;20474;-80
2022/07/17 08:29:06;;;;;;;2.43;2.20;;;28.50;39.40;;;;;;5042352;28;20505;-82
2022/07/17 08:31:35;;;;;;;2.13;2.03;;;28.50;39.30;;;;;;5040507;28;20440;-81
2022/07/17 08:34:03;;;;;;;2.00;1.90;;;28.50;39.20;;;;;;5042786;28;20472;-81
2022/07/17 08:36:31;;;;;;;2.87;2.20;;;28.60;39.30;;;;;;5042591;28;20420;-81
2022/07/17 08:38:59;;;;;;;2.30;2.20;;;28.60;39.10;;;;;;5044272;28;20452;-82
2022/07/17 08:41:28;;;;;;;3.20;2.40;;;28.60;39.20;;;;;;5045668;28;20466;-81
2022/07/17 08:43:57;;;;;;;2.20;2.00;;;28.70;39.00;;;;;;5041703;28;20490;-81
2022/07/17 08:46:25;;;;;;;3.27;2.70;;;28.80;38.90;;;;;;5041970;28;20472;-81
2022/07/17 08:48:58;;;;;;;1.80;1.70;;;28.90;38.70;;;;;;5043222;28;20447;-83
2022/07/17 08:51:26;;;;;;;2.00;1.90;;;29.00;38.60;;;;;;5048960;28;20444;-82
2022/07/17 08:53:55;;;;;;;2.83;2.33;;;29.10;38.50;;;;;;5043391;28;20962;-82
2022/07/17 08:56:23;;;;;;;2.33;2.23;;;29.10;38.50;;;;;;5046768;28;20505;-81
2022/07/17 08:58:51;;;;;;;1.80;1.70;;;29.30;38.50;;;;;;5038611;28;20478;-81
2022/07/17 09:01:23;;;;;;;3.87;2.37;;;29.20;38.50;;;;;;5038722;28;20497;-81
2022/07/17 09:03:57;;;;;;;6.63;1.93;;;29.30;38.40;;;;;;5042920;28;20476;-81
2022/07/17 09:06:26;;;;;;;1.80;1.70;;;29.40;38.40;;;;;;5044455;28;20481;-81
2022/07/17 09:09:02;;;;;;;2.80;1.90;;;29.40;38.30;;;;;;5043446;28;20447;-81
2022/07/17 09:11:30;;;;;;;3.57;1.90;;;29.40;38.50;;;;;;5040763;28;20451;-81
2022/07/17 09:13:58;;;;;;;2.20;1.93;;;29.50;38.30;;;;;;5041031;28;20467;-81
2022/07/17 09:16:27;;;;;;;3.93;1.97;;;29.50;38.40;;;;;;5047156;28;20439;-80
2022/07/17 09:19:02;;;;;;;2.50;1.83;;;29.50;38.20;;;;;;5048297;28;20453;-80
2022/07/17 09:21:31;;;;;;;2.30;1.90;;;29.50;38.20;;;;;;5048113;28;20415;-81
2022/07/17 09:24:00;;;;;;;3.03;1.70;;;29.60;38.10;;;;;;5047747;28;20493;-80
2022/07/17 09:26:28;;;;;;;3.73;1.43;;;29.60;38.10;;;;;;5047168;28;20482;-80
2022/07/17 09:28:57;;;;;;;5.43;1.87;;;29.60;37.90;;;;;;5047437;28;20447;-80
2022/07/17 09:31:26;;;;;;;2.67;1.63;;;29.60;37.90;;;;;;5047070;28;20447;-81
2022/07/17 09:33:55;;;;;;;1.80;1.67;;;29.70;37.80;;;;;;5043969;28;20529;-79
2022/07/17 09:36:26;;;;;;;7.00;1.80;;;29.70;37.90;;;;;;5045684;28;20439;-79
2022/07/17 09:38:56;;;;;;;3.53;1.70;;;29.80;37.60;;;;;;5045619;28;20520;-80
2022/07/17 09:41:25;;;;;;;2.90;1.50;;;29.80;37.40;;;;;;5046616;28;20448;-80
2022/07/17 09:43:54;;;;;;;6.80;1.57;;;29.90;37.30;;;;;;5045243;28;20451;-80
2022/07/17 09:46:23;;;;;;;2.77;1.70;;;30.00;37.10;;;;;;5040594;28;20446;-79
2022/07/17 09:48:52;;;;;;;1.50;1.40;;;30.20;37.00;;;;;;5047045;28;20463;-80
2022/07/17 09:51:24;;;;;;;1.70;1.30;;;30.30;36.90;;;;;;5045308;28;20459;-79
2022/07/17 09:53:53;;;;;;;1.87;1.77;;;30.50;36.80;;;;;;5047434;28;20958;-80
2022/07/17 09:56:23;;;;;;;2.90;1.40;;;30.50;36.60;;;;;;5046569;28;20466;-79
2022/07/17 09:58:53;;;;;;;3.30;1.40;;;30.50;36.70;;;;;;5046555;28;20463;-80
2022/07/17 10:01:22;;;;;;;1.57;1.40;;;30.60;36.80;;;;;;5047003;28;20463;-80
2022/07/17 10:03:53;;;;;;;3.43;1.70;;;30.70;36.50;;;;;;5047352;28;20471;-80
2022/07/17 10:06:21;;;;;;;2.20;1.47;;;30.80;36.40;;;;;;5046248;28;20483;-80
2022/07/17 10:08:51;;;;;;;2.63;1.67;;;30.80;36.40;;;;;;5046215;28;20443;-80
2022/07/17 10:11:20;;;;;;;3.43;1.50;;;30.90;36.30;;;;;;5050147;28;20466;-80
2022/07/17 10:13:48;;;;;;;3.17;1.90;;;31.00;36.40;;;;;;5066211;28;20538;-80
2022/07/17 10:16:26;;;;;;;7.53;2.07;;;31.10;36.30;;;;;;5065526;28;20438;-81
2022/07/17 10:18:57;;;;;;;2.80;1.53;;;31.30;36.20;;;;;;5066933;28;20457;-81
2022/07/17 10:21:27;;;;;;;2.47;2.00;;;31.40;35.90;;;;;;5066566;28;20541;-81
2022/07/17 10:24:10;;;;;;;2.53;2.00;;;31.50;35.50;;;;;;5066217;28;20486;-80
2022/07/17 10:26:43;;;;;;;2.07;1.80;;;31.60;36.10;;;;;;5066415;28;20505;-81
2022/07/17 10:29:27;;;;;;;3.27;2.43;;;31.60;36.00;;;;;;5067471;28;20453;-81
2022/07/17 10:31:59;;;;;;;3.47;2.10;;;31.60;36.20;;;;;;5067222;28;20477;-81
2022/07/17 10:34:41;;;;;;;5.60;2.30;;;31.70;36.00;;;;;;5067896;28;20470;-81
2022/07/17 10:37:20;;;;;;;3.50;2.20;;;31.80;36.10;;;;;;5066946;28;20484;-81
2022/07/17 10:40:06;;;;;;;5.70;2.50;;;31.70;36.00;;;;;;5066527;28;20481;-80
2022/07/17 10:42:42;;;;;;;10.00;2.80;;;31.70;36.30;;;;;;5066015;28;20516;-82
2022/07/17 10:45:11;;;;;;;5.87;2.60;;;31.70;36.70;;;;;;5067734;28;20441;-82
2022/07/17 10:47:50;;;;;;;5.30;2.77;;;31.60;36.70;;;;;;5062657;28;20436;-83
2022/07/17 10:50:19;;;;;;;7.77;2.83;;;31.60;37.50;;;;;;5070787;28;20433;-82
2022/07/17 10:53:01;;;;;;;6.93;3.00;;;31.90;37.20;;;;;;5070713;28;20458;-81
2022/07/17 10:55:30;;;;;;;10.90;3.00;;;32.10;37.10;;;;;;5069070;28;20442;-80
2022/07/17 10:57:58;;;;;;;7.87;3.43;;;32.20;36.80;;;;;;5069571;28;20446;-80
2022/07/17 11:00:27;;;;;;;9.23;2.80;;;32.30;36.20;;;;;;5069254;28;20447;-80
2022/07/17 11:02:55;;;;;;;4.73;2.07;;;32.40;35.90;;;;;;5068636;28;20463;-82
2022/07/17 11:05:27;;;;;;;6.40;4.50;;;32.00;33.70;;;;;;5069652;28;20450;-81
2022/07/17 11:08:09;;;;;;;3.93;2.20;;;31.80;33.00;;;;;;5070149;28;20434;-81
2022/07/17 11:10:57;;;;;;;5.50;1.93;;;31.00;33.30;;;;;;5068753;28;20443;-81
2022/07/17 11:13:32;;;;;;;7.73;5.37;;;30.70;33.90;;;;;;5068748;28;20466;-81
2022/07/17 11:16:12;;;;;;;2.63;2.00;;;31.30;34.10;;;;;;5069161;28;20446;-82
2022/07/17 11:18:47;;;;;;;7.10;1.60;;;31.40;33.40;;;;;;5064742;28;20445;-80
2022/07/17 11:21:27;;;;;;;3.97;2.00;;;31.60;32.80;;;;;;5069208;28;20453;-81
2022/07/17 11:23:58;;;;;;;6.50;1.93;;;31.60;34.20;;;;;;5070092;28;20465;-81
2022/07/17 11:29:21;;;;;;;3.87;1.87;;;32.60;33.30;;;;;;5067609;28;20442;-82
2022/07/17 11:31:55;;;;;;;1.70;1.40;;;32.90;32.40;;;;;;5068956;28;20442;-81
2022/07/17 11:34:25;;;;;;;8.23;1.77;;;33.00;32.20;;;;;;5063904;28;20485;-80
2022/07/17 11:37:00;;;;;;;9.57;1.70;;;33.10;32.00;;;;;;5062329;28;20449;-80
2022/07/17 11:39:42;;;;;;;6.47;1.40;;;32.90;32.40;;;;;;5062191;28;20450;-80
2022/07/17 11:42:15;;;;;;;27.13;15.23;;;32.70;31.60;;;;;;5062324;28;20453;-80
2022/07/17 11:44:43;;;;;;;20.47;13.10;;;32.70;32.60;;;;;;5058795;28;20494;-79
2022/07/17 11:47:12;;;;;;;12.43;7.73;;;32.70;32.80;;;;;;5059164;28;20481;-80
2022/07/17 11:49:41;;;;;;;9.63;2.97;;;32.60;33.00;;;;;;5062843;28;20789;-80
2022/07/17 11:52:13;;;;;;;7.20;4.30;;;32.30;32.80;;;;;;5051110;28;20883;-80
2022/07/17 11:54:47;;;;;;;8.67;5.60;;;32.30;33.70;;;;;;5059711;28;20467;-79
2022/07/17 11:57:18;;;;;;;8.20;4.27;;;32.30;33.50;;;;;;5063938;28;20482;-80
2022/07/17 11:59:46;;;;;;;8.13;3.50;;;32.30;33.30;;;;;;5063062;28;20438;-80
2022/07/17 12:02:15;;;;;;;2.27;2.03;;;32.10;33.50;;;;;;5061561;28;20443;-82
2022/07/17 12:04:50;;;;;;;6.43;2.30;;;31.90;32.50;;;;;;5062579;28;20474;-81
2022/07/17 12:07:19;;;;;;;3.30;2.53;;;31.90;32.60;;;;;;5062055;28;20557;-79
2022/07/17 12:09:47;;;;;;;2.73;1.70;;;31.70;32.90;;;;;;5063621;28;20447;-80
2022/07/17 12:12:26;;;;;;;2.93;2.37;;;31.80;33.00;;;;;;5062835;28;20453;-82
2022/07/17 12:14:55;;;;;;;6.40;1.87;;;31.90;33.70;;;;;;5060492;28;20461;-78
2022/07/17 12:17:38;;;;;;;3.00;1.67;;;30.70;34.40;;;;;;5065589;28;20477;-79
2022/07/17 12:20:16;;;;;;;6.90;2.00;;;29.70;36.10;;;;;;5066208;28;20442;-80
2022/07/17 12:22:46;;;;;;;2.40;1.80;;;28.80;37.20;;;;;;5064866;28;20473;-79
2022/07/17 12:25:24;;;;;;;5.30;1.77;;;28.60;37.90;;;;;;5060191;28;20447;-77
2022/07/17 12:27:54;;;;;;;1.60;1.50;;;28.50;38.10;;;;;;5058076;28;20473;-80
2022/07/17 12:30:23;;;;;;;1.47;1.37;;;28.20;38.70;;;;;;5059826;28;20443;-78
2022/07/17 12:32:58;;;;;;;2.00;1.60;;;28.30;38.80;;;;;;5059667;28;20463;-78
2022/07/17 12:35:38;;;;;;;1.37;1.27;;;28.10;39.20;;;;;;5061264;28;20493;-77
2022/07/17 12:38:08;;;;;;;1.87;1.20;;;28.10;39.70;;;;;;5061799;28;20431;-77
2022/07/17 12:40:36;;;;;;;1.77;1.33;;;28.20;39.40;;;;;;5058326;28;20425;-77
2022/07/17 12:43:09;;;;;;;2.07;1.53;;;27.80;39.80;;;;;;5057051;28;20884;-77
2022/07/17 12:45:41;;;;;;;3.23;2.20;;;27.70;40.20;;;;;;5056785;28;20405;-77
2022/07/17 12:48:10;;;;;;;2.40;1.50;;;27.90;39.90;;;;;;5057578;28;20536;-77
2022/07/17 12:50:38;;;;;;;1.60;1.50;;;28.10;39.40;;;;;;5053013;28;20428;-76
2022/07/17 12:53:06;;;;;;;3.93;1.70;;;28.20;39.10;;;;;;5055810;28;20456;-77
2022/07/17 12:55:36;;;;;;;4.80;1.40;;;28.20;39.20;;;;;;5053207;28;20453;-78
2022/07/17 12:58:06;;;;;;;2.10;1.50;;;28.10;39.30;;;;;;5055778;28;20451;-78
2022/07/17 13:00:34;;;;;;;4.00;1.60;;;28.20;38.40;;;;;;5052270;28;20465;-79